Time;durP1;ratioP1;P1;durP2;ratioP2;P2;SDS_P1;SDS_P2;PMS_P1;PMS_P2;Temp;Humidity;BMP_temperature;BMP_pressure;BME280_temperature;BME280_humidity;BME280_pressure;Samples;Min_cycle;Max_cycle;Signal;HPM_P1;HPM_P2
2022/11/16 00:01:11;;;;;;;53.78;30.88;;;8.90;99.90;;;;;;4224987;28;20055;-87
2022/11/16 00:03:31;;;;;;;346.73;47.60;;;8.90;99.90;;;;;;4222749;28;20051;-87
2022/11/16 00:05:56;;;;;;;55.55;29.02;;;8.90;99.90;;;;;;4227871;28;20059;-87
2022/11/16 00:08:16;;;;;;;237.93;36.35;;;8.90;99.90;;;;;;4225780;28;20039;-86
2022/11/16 00:10:36;;;;;;;37.15;26.10;;;8.90;99.90;;;;;;4226589;28;20082;-87
2022/11/16 00:12:55;;;;;;;27.52;24.63;;;8.90;99.90;;;;;;4232251;28;20269;-87
2022/11/16 00:15:15;;;;;;;27.58;24.88;;;8.90;99.90;;;;;;4231658;28;20243;-87
2022/11/16 00:17:35;;;;;;;25.00;22.40;;;8.90;99.90;;;;;;4217668;28;20051;-87
2022/11/16 00:19:54;;;;;;;25.52;22.83;;;8.90;99.90;;;;;;4231195;28;20069;-87
2022/11/16 00:22:14;;;;;;;34.38;27.40;;;8.90;99.90;;;;;;4230757;28;20047;-87
2022/11/16 00:24:34;;;;;;;27.08;24.55;;;9.00;99.90;;;;;;4231819;28;20078;-87
2022/11/16 00:26:55;;;;;;;26.73;21.42;;;9.00;99.90;;;;;;4229196;28;20273;-87
2022/11/16 00:29:19;;;;;;;40.85;22.73;;;9.00;99.90;;;;;;4230578;28;20042;-87
2022/11/16 00:31:40;;;;;;;39.72;26.02;;;9.00;99.90;;;;;;4231744;28;20042;-87
2022/11/16 00:33:59;;;;;;;47.53;27.25;;;9.00;99.90;;;;;;4219578;28;20081;-87
2022/11/16 00:36:19;;;;;;;24.58;22.27;;;9.00;99.90;;;;;;4232601;28;20047;-87
2022/11/16 00:38:39;;;;;;;25.15;22.75;;;9.00;99.90;;;;;;4220029;28;20055;-87
2022/11/16 00:40:59;;;;;;;25.90;23.35;;;9.00;99.90;;;;;;4232910;28;20051;-87
2022/11/16 00:43:19;;;;;;;28.20;24.27;;;9.00;99.90;;;;;;4229672;28;20072;-87
2022/11/16 00:45:41;;;;;;;30.13;25.55;;;9.00;99.90;;;;;;4215561;28;20095;-87
2022/11/16 00:48:01;;;;;;;23.80;21.63;;;9.00;99.90;;;;;;4226040;28;20090;-87
2022/11/16 00:50:20;;;;;;;16.80;15.60;;;9.00;99.90;;;;;;4218456;28;20085;-87
2022/11/16 00:52:40;;;;;;;18.05;16.73;;;9.00;99.90;;;;;;4234711;28;20051;-87
2022/11/16 00:55:01;;;;;;;16.75;15.68;;;9.10;99.90;;;;;;4227364;28;20393;-87
2022/11/16 00:57:21;;;;;;;20.27;18.42;;;9.10;99.90;;;;;;4229665;28;20035;-87
2022/11/16 00:59:41;;;;;;;18.55;16.65;;;9.10;99.90;;;;;;4227504;28;20050;-87
2022/11/16 01:02:01;;;;;;;116.38;23.40;;;9.10;99.90;;;;;;4226005;28;20108;-87
2022/11/16 01:04:22;;;;;;;129.07;26.85;;;9.00;99.90;;;;;;4233468;28;20366;-87
2022/11/16 01:06:42;;;;;;;67.47;23.50;;;9.00;99.90;;;;;;4232874;28;20055;-87
2022/11/16 01:09:02;;;;;;;88.63;22.58;;;9.00;99.90;;;;;;4218995;28;20105;-87
2022/11/16 01:14:02;;;;;;;25.48;20.52;;;9.10;99.90;;;;;;4229982;28;20039;-87
2022/11/16 01:16:23;;;;;;;22.05;19.77;;;9.10;99.90;;;;;;4232696;28;20083;-87
2022/11/16 01:18:46;;;;;;;19.77;18.02;;;9.10;99.90;;;;;;4231746;28;20073;-87
2022/11/16 01:21:06;;;;;;;17.58;15.85;;;9.10;99.90;;;;;;4231201;28;20277;-87
2022/11/16 01:23:26;;;;;;;231.60;29.90;;;9.10;99.90;;;;;;4233780;28;20102;-87
2022/11/16 01:25:56;;;;;;;504.20;43.83;;;9.10;99.90;;;;;;4232096;28;20101;-87
2022/11/16 01:28:16;;;;;;;339.13;32.30;;;9.10;99.90;;;;;;4228016;28;20263;-87
2022/11/16 01:30:36;;;;;;;255.48;28.90;;;9.00;99.90;;;;;;4232434;28;20269;-88
2022/11/16 01:32:55;;;;;;;250.57;27.75;;;9.00;99.90;;;;;;4231724;28;20039;-87
2022/11/16 01:35:17;;;;;;;273.45;29.02;;;9.00;99.90;;;;;;4230326;28;20051;-88
2022/11/16 01:37:37;;;;;;;136.82;25.20;;;9.00;99.90;;;;;;4231221;28;20035;-87
2022/11/16 01:39:57;;;;;;;150.00;25.30;;;9.00;99.90;;;;;;4218008;28;20059;-87
2022/11/16 01:42:19;;;;;;;304.00;29.80;;;9.00;99.90;;;;;;4221422;28;20075;-87
2022/11/16 01:44:39;;;;;;;174.63;24.88;;;9.00;99.90;;;;;;4219459;28;20142;-87
2022/11/16 01:47:01;;;;;;;38.30;18.80;;;8.90;99.90;;;;;;4215309;28;20071;-87
2022/11/16 01:49:24;;;;;;;53.13;18.13;;;9.00;99.90;;;;;;4215338;28;20058;-87
2022/11/16 01:51:46;;;;;;;;;;;9.00;99.90;;;;;;4219119;28;20047;-87
2022/11/16 01:54:10;;;;;;;59.30;20.27;;;9.00;99.90;;;;;;4216087;28;19924;-87
2022/11/16 01:56:34;;;;;;;55.30;22.20;;;9.00;99.90;;;;;;4226286;28;20122;-87
2022/11/16 01:58:54;;;;;;;69.82;20.90;;;9.00;99.90;;;;;;4225895;28;20055;-87
2022/11/16 02:01:15;;;;;;;20.23;17.33;;;9.00;99.90;;;;;;4221590;28;20267;-87
2022/11/16 02:03:38;;;;;;;22.52;18.40;;;9.10;99.90;;;;;;4214183;28;20036;-87
2022/11/16 02:06:01;;;;;;;16.92;15.63;;;9.10;99.90;;;;;;4227767;28;20106;-87
2022/11/16 02:11:35;;;;;;;370.88;35.95;;;9.10;99.90;;;;;;4227623;28;20050;-87
2022/11/16 02:14:03;;;;;;;563.05;46.30;;;9.10;99.90;;;;;;4232745;28;20093;-87
2022/11/16 02:17:05;;;;;;;359.55;29.75;;;9.10;99.90;;;;;;4230162;28;20054;-87
2022/11/16 02:20:12;;;;;;;286.58;26.15;;;9.00;99.90;;;;;;4227104;28;20139;-87
2022/11/16 02:23:01;;;;;;;245.60;24.10;;;9.00;99.90;;;;;;4227505;28;20632;-87
2022/11/16 02:25:33;;;;;;;256.30;24.30;;;9.00;99.90;;;;;;4230493;28;20042;-87
2022/11/16 02:28:22;;;;;;;263.90;22.65;;;9.00;99.90;;;;;;4226059;28;20038;-87
2022/11/16 02:30:46;;;;;;;222.50;21.42;;;9.00;99.90;;;;;;4216678;28;20043;-88
2022/11/16 02:33:12;;;;;;;229.20;22.05;;;8.90;99.90;;;;;;4227758;28;20035;-87
2022/11/16 02:35:54;;;;;;;392.75;33.65;;;8.90;99.90;;;;;;4229540;28;20055;-88
2022/11/16 02:38:28;;;;;;;74.20;18.85;;;8.90;99.90;;;;;;4224232;28;20046;-88
2022/11/16 02:40:52;;;;;;;187.13;23.27;;;8.90;99.90;;;;;;4229326;28;20043;-87
2022/11/16 02:43:27;;;;;;;193.45;23.60;;;8.90;99.90;;;;;;4218361;28;20192;-87
2022/11/16 02:45:50;;;;;;;62.78;18.13;;;9.00;99.90;;;;;;4227532;28;20038;-87
2022/11/16 02:48:22;;;;;;;148.55;21.77;;;9.00;99.90;;;;;;4215347;28;20095;-87
2022/11/16 02:50:43;;;;;;;70.88;16.50;;;8.90;99.90;;;;;;4230363;28;20079;-88
2022/11/16 02:53:03;;;;;;;97.20;16.50;;;9.00;99.90;;;;;;4229254;28;20042;-88
2022/11/16 02:55:24;;;;;;;14.68;13.60;;;9.00;99.90;;;;;;4234754;28;20058;-87
2022/11/16 02:57:48;;;;;;;16.00;14.80;;;9.00;99.90;;;;;;4215984;28;20105;-87
2022/11/16 03:00:16;;;;;;;13.32;12.63;;;9.00;99.90;;;;;;4230541;28;20296;-87
2022/11/16 03:02:36;;;;;;;14.07;13.02;;;9.00;99.90;;;;;;4229129;28;20073;-88
2022/11/16 03:05:04;;;;;;;13.13;12.43;;;9.10;99.90;;;;;;4216973;28;20310;-88
2022/11/16 03:07:30;;;;;;;14.23;13.32;;;9.10;99.90;;;;;;4227253;28;20039;-88
2022/11/16 03:09:54;;;;;;;13.93;13.02;;;9.10;99.90;;;;;;4231572;28;20070;-88
2022/11/16 03:12:19;;;;;;;15.40;13.90;;;9.10;99.90;;;;;;4231615;28;20719;-88
2022/11/16 03:14:57;;;;;;;13.95;12.95;;;9.10;99.90;;;;;;4232143;28;20432;-87
2022/11/16 03:17:28;;;;;;;14.48;13.50;;;9.10;99.90;;;;;;4228972;28;20358;-87
2022/11/16 03:19:56;;;;;;;13.57;12.73;;;9.10;99.90;;;;;;4229328;28;20038;-88
2022/11/16 03:22:23;;;;;;;12.48;11.90;;;9.10;99.90;;;;;;4227046;28;20063;-88
2022/11/16 03:24:43;;;;;;;13.77;12.95;;;9.10;99.90;;;;;;4219035;28;20043;-87
2022/11/16 03:27:28;;;;;;;19.48;13.43;;;9.10;99.90;;;;;;4230019;28;20043;-87
2022/11/16 03:29:52;;;;;;;12.65;12.05;;;9.20;99.90;;;;;;4228945;28;20085;-87
2022/11/16 03:32:36;;;;;;;46.33;15.80;;;9.10;99.90;;;;;;4222278;28;20240;-87
2022/11/16 03:35:02;;;;;;;16.13;14.77;;;9.10;99.90;;;;;;4187783;28;20125;-87
2022/11/16 03:37:25;;;;;;;15.35;14.13;;;9.10;99.90;;;;;;4218464;28;20047;-87
2022/11/16 03:39:45;;;;;;;14.52;13.43;;;9.10;99.90;;;;;;4230562;28;20087;-87
2022/11/16 03:42:12;;;;;;;44.30;16.17;;;9.10;99.90;;;;;;4216055;28;20243;-87
2022/11/16 03:44:34;;;;;;;236.90;27.60;;;9.10;99.90;;;;;;4217525;28;20039;-88
2022/11/16 03:46:53;;;;;;;94.95;21.05;;;9.10;99.90;;;;;;4230091;28;20067;-87
2022/11/16 03:49:13;;;;;;;25.15;16.83;;;9.10;99.90;;;;;;4215844;28;20071;-88
2022/11/16 03:51:35;;;;;;;30.17;15.82;;;9.10;99.90;;;;;;4232207;28;20054;-87
2022/11/16 03:53:55;;;;;;;16.15;14.82;;;9.10;99.90;;;;;;4233313;28;20425;-87
2022/11/16 03:56:15;;;;;;;17.13;15.82;;;9.10;99.90;;;;;;4233017;28;20238;-87
2022/11/16 03:58:34;;;;;;;17.63;16.25;;;9.20;99.90;;;;;;4219276;28;20046;-88
2022/11/16 04:00:54;;;;;;;15.15;14.15;;;9.10;99.90;;;;;;4224355;28;20051;-87
2022/11/16 04:03:15;;;;;;;84.25;19.27;;;9.10;99.90;;;;;;4230956;28;20053;-87
2022/11/16 04:24:18;;;;;;;15.73;14.45;;;9.20;99.90;;;;;;4227307;28;20078;-88
2022/11/16 04:29:20;;;;;;;134.30;24.88;;;9.30;99.90;;;;;;4231721;28;20046;-86
2022/11/16 04:39:33;;;;;;;262.15;26.73;;;9.20;99.90;;;;;;4233377;28;20085;-87
2022/11/16 04:47:13;;;;;;;13.45;12.43;;;9.40;99.90;;;;;;4236662;28;20038;-87
2022/11/16 04:49:33;;;;;;;62.40;16.98;;;9.30;99.90;;;;;;4231776;28;20050;-87
2022/11/16 04:51:53;;;;;;;34.88;16.00;;;9.30;99.90;;;;;;4233297;28;20047;-87
2022/11/16 04:54:13;;;;;;;16.45;15.05;;;9.30;99.90;;;;;;4229616;28;20079;-87
2022/11/16 04:56:34;;;;;;;15.63;13.98;;;9.30;99.90;;;;;;4231437;28;20046;-87
2022/11/16 04:58:53;;;;;;;10.32;9.95;;;9.30;99.90;;;;;;4227730;28;20078;-88
2022/11/16 05:01:13;;;;;;;13.45;12.57;;;9.30;99.90;;;;;;4223208;28;20085;-88
2022/11/16 05:03:33;;;;;;;12.90;12.00;;;9.40;99.90;;;;;;4230775;28;20423;-87
2022/11/16 05:05:53;;;;;;;11.82;11.13;;;9.40;99.90;;;;;;4227359;28;20298;-88
2022/11/16 05:08:12;;;;;;;11.50;10.63;;;9.40;99.90;;;;;;4232264;28;20046;-88
2022/11/16 05:10:34;;;;;;;9.85;9.55;;;9.40;99.90;;;;;;4228469;28;20086;-88
2022/11/16 05:12:54;;;;;;;10.30;9.70;;;9.40;99.90;;;;;;4223474;28;20369;-87
2022/11/16 05:15:18;;;;;;;9.30;8.90;;;9.50;99.90;;;;;;4221662;28;20048;-87
2022/11/16 05:17:38;;;;;;;9.63;9.13;;;9.50;99.90;;;;;;4220627;28;20051;-88
2022/11/16 05:22:38;;;;;;;11.18;10.63;;;9.60;99.90;;;;;;4232313;28;20046;-87
2022/11/16 05:24:59;;;;;;;11.43;10.82;;;9.70;99.90;;;;;;4229003;28;20043;-87
2022/11/16 05:27:21;;;;;;;221.88;26.55;;;9.60;99.90;;;;;;4228364;28;20043;-87
2022/11/16 05:29:42;;;;;;;293.38;33.17;;;9.60;99.90;;;;;;4218350;28;20382;-87
2022/11/16 05:32:03;;;;;;;66.00;16.80;;;9.50;99.90;;;;;;4229644;28;20058;-88
2022/11/16 05:34:24;;;;;;;8.95;8.57;;;9.50;99.90;;;;;;4231745;28;20359;-88
2022/11/16 05:36:43;;;;;;;77.15;16.65;;;9.70;99.90;;;;;;4231216;28;20078;-88
2022/11/16 05:39:04;;;;;;;538.05;49.05;;;9.70;99.90;;;;;;4231821;28;20389;-88
2022/11/16 05:41:24;;;;;;;481.30;37.55;;;9.60;99.90;;;;;;4230092;28;20077;-88
2022/11/16 05:43:43;;;;;;;583.40;43.53;;;9.60;99.90;;;;;;4221857;28;20057;-88
2022/11/16 05:46:04;;;;;;;227.82;20.90;;;9.50;99.90;;;;;;4229566;28;20061;-87
2022/11/16 05:48:23;;;;;;;184.88;21.70;;;9.50;99.90;;;;;;4215731;28;20060;-88
2022/11/16 05:50:43;;;;;;;310.27;23.55;;;9.50;99.90;;;;;;4234608;28;20397;-87
2022/11/16 05:53:03;;;;;;;8.90;8.63;;;9.40;99.90;;;;;;4231159;28;20414;-88
2022/11/16 05:55:22;;;;;;;232.75;26.25;;;9.60;99.90;;;;;;4231995;28;20333;-88
2022/11/16 05:57:42;;;;;;;373.02;30.17;;;9.60;99.90;;;;;;4228877;28;20081;-88
2022/11/16 06:00:03;;;;;;;387.40;28.48;;;9.50;99.90;;;;;;4230978;28;20042;-88
2022/11/16 06:02:22;;;;;;;424.80;29.55;;;9.50;99.90;;;;;;4231265;28;20078;-87
2022/11/16 06:04:43;;;;;;;158.18;21.33;;;9.40;99.90;;;;;;4230463;28;20050;-87
2022/11/16 06:07:03;;;;;;;149.30;20.58;;;9.50;99.90;;;;;;4230305;28;20039;-88
2022/11/16 06:09:24;;;;;;;163.98;19.25;;;9.60;99.90;;;;;;4226333;28;20082;-87
2022/11/16 06:11:43;;;;;;;661.90;47.97;;;9.60;99.90;;;;;;4228440;28;20094;-87
2022/11/16 06:14:04;;;;;;;253.98;21.73;;;9.60;99.90;;;;;;4214462;28;20051;-87
2022/11/16 06:16:25;;;;;;;69.55;13.95;;;9.60;99.90;;;;;;4230203;28;20043;-88
2022/11/16 06:18:46;;;;;;;130.35;16.95;;;9.60;99.90;;;;;;4230338;28;20089;-87
2022/11/16 06:21:07;;;;;;;12.32;11.32;;;9.50;99.90;;;;;;4228100;28;20055;-88
2022/11/16 06:23:27;;;;;;;52.80;13.98;;;9.60;99.90;;;;;;4229423;28;20231;-87
2022/11/16 06:25:52;;;;;;;245.55;24.38;;;9.60;99.90;;;;;;4228850;28;20116;-90
2022/11/16 06:28:13;;;;;;;92.03;17.10;;;9.60;99.90;;;;;;4233034;28;20047;-89
2022/11/16 06:30:33;;;;;;;17.98;14.75;;;9.60;99.90;;;;;;4219167;28;20117;-89
2022/11/16 06:32:53;;;;;;;14.43;13.27;;;9.60;99.90;;;;;;4233142;28;20051;-89
2022/11/16 06:35:13;;;;;;;15.55;13.80;;;9.70;99.90;;;;;;4231413;28;20051;-89
2022/11/16 06:37:33;;;;;;;13.23;12.07;;;9.70;99.90;;;;;;4230583;28;20227;-89
2022/11/16 06:39:55;;;;;;;142.27;22.17;;;9.70;99.90;;;;;;4230205;28;20105;-89
2022/11/16 06:42:14;;;;;;;184.15;22.83;;;9.70;99.90;;;;;;4230432;28;20047;-89
2022/11/16 06:44:35;;;;;;;43.88;12.55;;;9.60;99.90;;;;;;4230074;28;20047;-89
2022/11/16 06:46:55;;;;;;;9.60;9.20;;;9.60;99.90;;;;;;4224552;28;20289;-89
2022/11/16 06:49:14;;;;;;;8.88;8.35;;;9.60;99.90;;;;;;4227429;28;20062;-89
2022/11/16 06:51:34;;;;;;;11.93;11.18;;;9.70;99.90;;;;;;4233011;28;20051;-89
2022/11/16 06:53:54;;;;;;;58.30;18.45;;;9.70;99.90;;;;;;4229656;28;20286;-87
2022/11/16 06:56:15;;;;;;;17.17;15.88;;;9.70;99.90;;;;;;4226471;28;20369;-88
2022/11/16 06:58:35;;;;;;;13.32;12.32;;;9.70;99.90;;;;;;4223569;28;20111;-90
2022/11/16 07:00:55;;;;;;;10.52;9.93;;;9.70;99.90;;;;;;4223862;28;20108;-89
2022/11/16 07:03:14;;;;;;;13.68;12.98;;;9.70;99.90;;;;;;4233564;28;20039;-89
2022/11/16 07:05:38;;;;;;;9.90;9.40;;;9.70;99.90;;;;;;4230480;28;20167;-89
2022/11/16 07:07:58;;;;;;;9.27;8.70;;;9.70;99.90;;;;;;4211999;28;20079;-88
2022/11/16 07:10:18;;;;;;;8.93;8.48;;;9.70;99.90;;;;;;4225943;28;20089;-89
2022/11/16 07:12:38;;;;;;;10.05;9.48;;;9.70;99.90;;;;;;4232555;28;20112;-89
2022/11/16 07:14:58;;;;;;;8.55;8.05;;;9.80;99.90;;;;;;4228170;28;20059;-89
2022/11/16 07:17:18;;;;;;;7.65;6.25;;;9.90;99.90;;;;;;4225702;28;20042;-89
2022/11/16 07:19:38;;;;;;;16.65;14.13;;;9.90;99.90;;;;;;4230398;28;20126;-88
2022/11/16 07:21:58;;;;;;;15.73;14.43;;;10.00;99.90;;;;;;4232319;28;20126;-89
2022/11/16 07:24:18;;;;;;;12.10;11.05;;;10.00;99.90;;;;;;4232910;28;20050;-89
2022/11/16 07:26:38;;;;;;;13.13;11.88;;;10.00;99.90;;;;;;4216475;28;20051;-89
2022/11/16 07:28:59;;;;;;;12.40;11.50;;;10.00;99.90;;;;;;4229521;28;20365;-89
2022/11/16 07:31:19;;;;;;;8.15;7.95;;;10.00;99.90;;;;;;4233466;28;20074;-89
2022/11/16 07:33:39;;;;;;;7.07;6.80;;;10.00;99.90;;;;;;4230229;28;20112;-90
2022/11/16 07:36:11;;;;;;;8.27;7.78;;;10.10;99.90;;;;;;4226331;28;20369;-90
2022/11/16 07:38:31;;;;;;;6.07;5.47;;;10.10;99.90;;;;;;4235860;28;20238;-89
2022/11/16 07:40:51;;;;;;;7.65;7.32;;;10.20;99.90;;;;;;4220663;28;20295;-90
2022/11/16 07:43:12;;;;;;;6.53;6.03;;;10.20;99.90;;;;;;4230305;28;20115;-90
2022/11/16 07:45:33;;;;;;;6.22;5.82;;;10.20;99.90;;;;;;4231964;28;20048;-89
2022/11/16 07:47:53;;;;;;;10.75;6.18;;;10.30;99.90;;;;;;4220728;28;20228;-89
2022/11/16 07:50:13;;;;;;;31.23;10.20;;;10.40;99.90;;;;;;4232721;28;20046;-89
2022/11/16 07:52:33;;;;;;;195.32;35.15;;;10.40;99.90;;;;;;4222622;28;20116;-89
2022/11/16 07:54:53;;;;;;;90.05;27.35;;;10.30;99.90;;;;;;4216919;28;20075;-90
2022/11/16 07:57:13;;;;;;;397.00;44.40;;;10.20;99.90;;;;;;4233826;28;20043;-89
2022/11/16 07:59:33;;;;;;;512.75;52.67;;;10.20;99.90;;;;;;4229841;28;20044;-88
2022/11/16 08:01:54;;;;;;;240.63;41.58;;;10.10;99.90;;;;;;4227058;28;20070;-89
2022/11/16 08:04:16;;;;;;;339.98;36.50;;;10.10;99.90;;;;;;4236961;28;20239;-89
2022/11/16 08:06:36;;;;;;;469.75;39.10;;;10.10;99.90;;;;;;4235239;28;20047;-89
2022/11/16 08:08:56;;;;;;;143.82;21.80;;;10.10;99.90;;;;;;4231029;28;20054;-89
2022/11/16 08:11:18;;;;;;;496.10;46.80;;;10.10;99.90;;;;;;4223583;28;20231;-89
2022/11/16 08:13:40;;;;;;;329.25;31.50;;;10.10;99.90;;;;;;4227870;28;20061;-89
2022/11/16 08:16:01;;;;;;;89.72;20.13;;;10.10;99.90;;;;;;4229895;28;20120;-89
2022/11/16 08:18:21;;;;;;;36.97;17.83;;;10.10;99.90;;;;;;4232980;28;20073;-89
2022/11/16 08:20:40;;;;;;;281.30;30.05;;;10.20;99.90;;;;;;4232919;28;20075;-89
2022/11/16 08:23:00;;;;;;;476.83;42.70;;;10.20;99.90;;;;;;4235074;28;20058;-90
2022/11/16 08:25:21;;;;;;;616.50;68.25;;;10.20;99.90;;;;;;4229615;28;20067;-89
2022/11/16 08:27:41;;;;;;;520.47;53.60;;;10.20;99.90;;;;;;4232923;28;20038;-89
2022/11/16 08:30:02;;;;;;;633.72;52.08;;;10.10;99.90;;;;;;4231114;28;20075;-89
2022/11/16 08:32:22;;;;;;;486.23;41.20;;;10.20;99.90;;;;;;4220605;28;20082;-88
2022/11/16 08:34:41;;;;;;;176.27;25.88;;;10.20;99.90;;;;;;4217515;28;20048;-89
2022/11/16 08:37:01;;;;;;;143.93;24.88;;;10.20;99.90;;;;;;4221932;28;20086;-89
2022/11/16 08:39:21;;;;;;;210.38;31.92;;;10.20;99.90;;;;;;4233778;28;20094;-89
2022/11/16 08:41:43;;;;;;;297.13;38.80;;;10.30;99.90;;;;;;4228891;28;20502;-90
2022/11/16 08:44:03;;;;;;;438.70;44.40;;;10.30;99.90;;;;;;4224168;28;20236;-89
2022/11/16 08:46:22;;;;;;;260.40;34.67;;;10.20;99.90;;;;;;4224289;28;20062;-88
2022/11/16 08:48:43;;;;;;;264.00;36.30;;;10.30;99.90;;;;;;4229899;28;20062;-88
2022/11/16 08:51:08;;;;;;;154.23;27.08;;;10.20;99.90;;;;;;4230720;28;20369;-89
2022/11/16 08:53:38;;;;;;;34.47;17.48;;;10.30;99.90;;;;;;4227507;28;20365;-89
2022/11/16 08:56:07;;;;;;;15.38;13.75;;;10.30;99.90;;;;;;4231393;28;20060;-89
2022/11/16 08:58:27;;;;;;;17.10;15.18;;;10.40;99.90;;;;;;4219517;28;20232;-89
2022/11/16 09:00:47;;;;;;;16.73;15.40;;;10.30;99.90;;;;;;4228860;28;20375;-89
2022/11/16 09:03:07;;;;;;;17.35;15.85;;;10.30;99.90;;;;;;4221596;28;20106;-88
2022/11/16 09:05:27;;;;;;;25.40;19.48;;;10.30;99.90;;;;;;4228631;28;20046;-89
2022/11/16 09:07:46;;;;;;;19.70;15.23;;;10.30;99.90;;;;;;4230745;28;20053;-89
2022/11/16 09:10:07;;;;;;;15.80;14.13;;;10.40;99.90;;;;;;4230800;28;20058;-88
2022/11/16 09:12:27;;;;;;;15.63;14.13;;;10.50;99.90;;;;;;4223206;28;20093;-88
2022/11/16 09:14:46;;;;;;;19.15;15.35;;;10.60;99.90;;;;;;4216419;28;20090;-88
2022/11/16 09:17:06;;;;;;;19.92;17.85;;;10.70;99.90;;;;;;4228695;28;20387;-89
2022/11/16 09:19:25;;;;;;;18.70;16.67;;;10.80;99.90;;;;;;4229883;28;20265;-88
2022/11/16 09:21:45;;;;;;;26.13;17.50;;;10.70;99.90;;;;;;4231731;28;20527;-88
2022/11/16 09:24:05;;;;;;;27.00;19.60;;;10.80;99.90;;;;;;4231386;28;20251;-88
2022/11/16 09:26:25;;;;;;;39.92;30.25;;;10.90;99.90;;;;;;4232112;28;20088;-88
2022/11/16 09:28:46;;;;;;;24.08;20.13;;;10.90;99.90;;;;;;4219996;28;20081;-88
2022/11/16 09:31:08;;;;;;;20.67;18.83;;;11.00;99.90;;;;;;4231669;28;20077;-89
2022/11/16 09:33:30;;;;;;;21.92;19.13;;;11.00;99.90;;;;;;4228042;28;20046;-89
2022/11/16 09:35:49;;;;;;;40.65;26.88;;;11.10;99.90;;;;;;4230743;28;20092;-89
2022/11/16 09:38:09;;;;;;;34.15;25.38;;;11.10;99.90;;;;;;4229249;28;20114;-88
2022/11/16 09:40:37;;;;;;;131.55;47.80;;;11.10;99.90;;;;;;4229776;28;20087;-89
2022/11/16 09:43:02;;;;;;;64.53;43.67;;;11.00;99.90;;;;;;4230992;28;20104;-90
2022/11/16 09:46:04;;;;;;;127.32;42.17;;;11.00;99.90;;;;;;4231802;28;20078;-90
2022/11/16 09:48:24;;;;;;;246.85;57.22;;;11.00;99.90;;;;;;4153746;28;20057;-91
2022/11/16 09:50:52;;;;;;;249.43;66.18;;;10.90;99.90;;;;;;4155413;28;20081;-92
2022/11/16 09:53:22;;;;;;;261.50;35.60;;;10.80;99.90;;;;;;4196194;28;20816;-91
2022/11/16 09:55:50;;;;;;;121.93;20.85;;;10.80;99.90;;;;;;4230935;28;20043;-92
2022/11/16 09:58:16;;;;;;;109.75;15.95;;;10.90;99.90;;;;;;4230428;28;20059;-90
2022/11/16 10:00:42;;;;;;;69.90;15.82;;;10.90;99.90;;;;;;4230326;28;20061;-90
2022/11/16 10:03:12;;;;;;;65.18;20.70;;;10.90;99.90;;;;;;4227205;28;20281;-91
2022/11/16 10:05:58;;;;;;;36.63;30.35;;;11.00;99.90;;;;;;4222056;28;20078;-92
2022/11/16 10:08:44;;;;;;;28.95;21.75;;;11.10;99.90;;;;;;4229269;28;20060;-92
2022/11/16 10:11:24;;;;;;;21.17;18.95;;;11.20;99.90;;;;;;4234535;28;20126;-92
2022/11/16 10:14:10;;;;;;;18.02;15.55;;;11.20;99.90;;;;;;4237646;28;20069;-92
2022/11/16 10:16:56;;;;;;;16.42;15.00;;;11.30;99.90;;;;;;4228271;28;20040;-90
2022/11/16 10:19:18;;;;;;;16.33;14.95;;;11.30;99.90;;;;;;4232983;28;20055;-91
2022/11/16 10:21:53;;;;;;;15.70;14.38;;;11.40;99.90;;;;;;4230951;28;20047;-93
2022/11/16 10:24:24;;;;;;;25.15;22.63;;;11.50;99.90;;;;;;4219023;28;20307;-90
2022/11/16 10:26:55;;;;;;;26.52;24.17;;;11.60;99.90;;;;;;4231775;28;20070;-91
2022/11/16 10:29:30;;;;;;;24.20;21.90;;;11.60;99.90;;;;;;4222449;28;20382;-91
2022/11/16 10:31:58;;;;;;;20.25;18.10;;;11.70;99.90;;;;;;4234674;28;20066;-91
2022/11/16 10:34:23;;;;;;;19.55;17.75;;;11.80;99.90;;;;;;4234180;28;20086;-90
2022/11/16 10:36:44;;;;;;;42.78;32.20;;;11.80;99.90;;;;;;4229261;28;20047;-91
2022/11/16 10:39:12;;;;;;;40.80;29.75;;;11.80;99.90;;;;;;4222461;28;20269;-91
2022/11/16 10:41:51;;;;;;;41.58;29.85;;;11.80;99.90;;;;;;4231867;28;20317;-91
2022/11/16 10:44:38;;;;;;;36.83;30.02;;;11.80;99.90;;;;;;4217219;28;20043;-91
2022/11/16 10:47:21;;;;;;;40.08;30.48;;;11.90;99.90;;;;;;4228938;28;20381;-90
2022/11/16 10:49:56;;;;;;;65.82;40.45;;;11.80;99.90;;;;;;4215747;28;20078;-90
2022/11/16 10:52:17;;;;;;;179.70;56.67;;;11.90;99.90;;;;;;4231498;28;20039;-91
2022/11/16 10:54:37;;;;;;;137.70;52.33;;;11.90;99.90;;;;;;4230815;28;20077;-91
2022/11/16 10:57:07;;;;;;;63.95;47.80;;;11.80;99.90;;;;;;4224752;28;20082;-90
2022/11/16 10:59:45;;;;;;;68.75;43.08;;;11.90;99.90;;;;;;4227638;28;20039;-91
2022/11/16 11:02:23;;;;;;;56.83;40.17;;;11.90;99.90;;;;;;4226381;28;20127;-90
2022/11/16 11:05:08;;;;;;;56.53;37.88;;;11.90;99.90;;;;;;4225765;28;20291;-90
2022/11/16 11:07:38;;;;;;;155.15;47.50;;;12.10;99.90;;;;;;4221880;28;20138;-90
2022/11/16 11:09:58;;;;;;;92.75;54.65;;;12.30;99.90;;;;;;4229205;28;20070;-88
2022/11/16 11:12:37;;;;;;;46.53;38.63;;;12.00;99.90;;;;;;4213209;28;20039;-88
2022/11/16 11:15:21;;;;;;;33.65;29.52;;;12.10;99.90;;;;;;4230404;28;20118;-89
2022/11/16 11:17:47;;;;;;;29.48;26.33;;;12.30;99.90;;;;;;4215730;28;20070;-89
2022/11/16 11:20:22;;;;;;;39.28;35.15;;;12.40;99.90;;;;;;4228946;28;20047;-90
2022/11/16 11:22:59;;;;;;;63.50;45.83;;;12.40;99.90;;;;;;4225080;28;20043;-90
2022/11/16 11:25:28;;;;;;;49.78;43.83;;;12.50;99.90;;;;;;4215557;28;20047;-90
2022/11/16 11:27:50;;;;;;;69.10;46.95;;;12.50;99.90;;;;;;4230682;28;20077;-88
2022/11/16 11:30:21;;;;;;;66.40;48.42;;;12.40;99.90;;;;;;4217349;28;20299;-88
2022/11/16 11:32:41;;;;;;;30.52;25.67;;;12.40;99.90;;;;;;4224741;28;20078;-88
2022/11/16 11:35:02;;;;;;;37.53;33.00;;;12.70;99.90;;;;;;4223870;28;20050;-89
2022/11/16 11:37:32;;;;;;;30.40;27.33;;;12.90;99.90;;;;;;4229779;28;20039;-88
2022/11/16 11:40:26;;;;;;;76.80;52.70;;;12.90;99.90;;;;;;4229189;28;20058;-88
2022/11/16 11:43:00;;;;;;;52.15;40.28;;;12.90;99.90;;;;;;4228640;28;20071;-89
2022/11/16 11:45:44;;;;;;;30.13;25.73;;;12.90;99.90;;;;;;4225720;28;20054;-88
2022/11/16 11:48:21;;;;;;;21.70;18.73;;;13.00;99.90;;;;;;4217497;28;20054;-88
2022/11/16 11:50:47;;;;;;;35.85;30.73;;;13.10;99.90;;;;;;4230428;28;20043;-88
2022/11/16 11:53:19;;;;;;;32.72;27.20;;;13.10;99.90;;;;;;4229317;28;20296;-87
2022/11/16 11:55:40;;;;;;;17.65;16.05;;;13.10;99.90;;;;;;4233496;28;20230;-87
2022/11/16 11:58:01;;;;;;;14.75;13.23;;;13.20;99.90;;;;;;4225755;28;20081;-87
2022/11/16 12:00:22;;;;;;;11.18;10.32;;;13.30;99.90;;;;;;4226510;28;20122;-87
2022/11/16 12:03:00;;;;;;;56.47;37.70;;;13.30;99.90;;;;;;4221228;28;20089;-87
2022/11/16 12:05:58;;;;;;;15.07;13.68;;;13.20;99.90;;;;;;4223696;28;20093;-87
2022/11/16 12:08:37;;;;;;;11.25;10.52;;;13.20;99.90;;;;;;4226187;28;20104;-87
2022/11/16 12:11:04;;;;;;;11.45;10.55;;;13.40;99.90;;;;;;4229045;28;20246;-88
2022/11/16 12:13:38;;;;;;;10.80;10.02;;;13.40;99.90;;;;;;4232816;28;20063;-87
2022/11/16 12:16:08;;;;;;;;;;;13.40;99.90;;;;;;4231983;28;20080;-87
2022/11/16 12:18:30;;;;;;;32.35;26.77;;;13.40;99.90;;;;;;4217641;28;20158;-87
2022/11/16 12:21:12;;;;;;;49.72;37.88;;;13.40;99.90;;;;;;4231978;28;20063;-87
2022/11/16 12:23:38;;;;;;;69.35;42.60;;;13.30;99.90;;;;;;4227370;28;20457;-87
2022/11/16 12:26:19;;;;;;;62.08;49.85;;;13.20;99.90;;;;;;4228161;28;20094;-87
2022/11/16 12:29:11;;;;;;;65.25;44.85;;;13.20;99.90;;;;;;4232988;28;20080;-87
2022/11/16 12:31:45;;;;;;;114.57;40.97;;;13.40;99.90;;;;;;4232208;28;20042;-88
2022/11/16 12:34:21;;;;;;;43.75;33.95;;;13.50;99.90;;;;;;4228098;28;20374;-87
2022/11/16 12:36:58;;;;;;;32.13;19.85;;;13.70;99.90;;;;;;4233988;28;20043;-87
2022/11/16 12:39:25;;;;;;;47.75;39.45;;;13.80;99.90;;;;;;4231102;28;20085;-87
2022/11/16 12:41:45;;;;;;;44.03;34.83;;;13.90;99.90;;;;;;4235072;28;20231;-88
2022/11/16 12:44:20;;;;;;;50.67;39.47;;;13.90;99.90;;;;;;4233084;28;20046;-96
2022/11/16 12:46:46;;;;;;;43.72;33.60;;;13.80;99.90;;;;;;4237010;28;20310;-95
2022/11/16 12:49:31;;;;;;;24.55;21.77;;;13.80;99.90;;;;;;4222763;28;20417;-95
2022/11/16 12:51:59;;;;;;;22.25;20.17;;;13.90;99.90;;;;;;4230156;28;20074;-93
2022/11/16 12:54:25;;;;;;;28.67;25.73;;;14.00;99.90;;;;;;4230910;28;20119;-95
2022/11/16 12:57:03;;;;;;;69.50;56.35;;;14.00;99.90;;;;;;4228347;28;20046;-96
2022/11/16 12:59:34;;;;;;;43.55;36.42;;;14.10;99.90;;;;;;4225906;28;20062;-95
2022/11/16 13:02:13;;;;;;;32.28;23.20;;;14.20;99.90;;;;;;4233505;28;20100;-96